Time;durP1;ratioP1;P1;durP2;ratioP2;P2;SDS_P1;SDS_P2;PMS_P1;PMS_P2;Temp;Humidity;BMP_temperature;BMP_pressure;BME280_temperature;BME280_humidity;BME280_pressure;Samples;Min_cycle;Max_cycle;Signal;HPM_P1;HPM_P2
2021/08/30 00:02:20;;;;;;;0.08;0.00;;;;;;;9.15;92.05;90749.09;5004960;28;20028;-86
2021/08/30 00:04:59;;;;;;;0.30;0.10;;;;;;;9.14;92.03;90752.00;5022646;28;20528;-85
2021/08/30 00:07:39;;;;;;;0.00;0.00;;;;;;;9.16;92.03;90749.84;5006775;28;20025;-85
2021/08/30 00:10:15;;;;;;;0.13;0.03;;;;;;;9.10;92.46;90747.44;5004821;28;20020;-85
2021/08/30 00:12:55;;;;;;;0.32;0.10;;;;;;;9.08;92.23;90747.03;5004462;28;20033;-85
2021/08/30 00:15:36;;;;;;;0.05;0.00;;;;;;;9.08;92.90;90743.63;5020511;28;20033;-85
2021/08/30 00:18:04;;;;;;;0.20;0.10;;;;;;;9.17;92.31;90751.38;5036665;28;20028;-86
2021/08/30 00:20:38;;;;;;;0.17;0.10;;;;;;;9.14;92.99;90747.56;5035582;28;20507;-86
2021/08/30 00:23:22;;;;;;;0.17;0.03;;;;;;;9.28;91.79;90748.00;5003104;28;20029;-85
2021/08/30 00:25:59;;;;;;;0.20;0.10;;;;;;;9.19;92.16;90749.97;5016100;28;20191;-85
2021/08/30 00:28:29;;;;;;;0.13;0.08;;;;;;;9.17;92.42;90746.91;4984334;28;20025;-85
2021/08/30 00:31:09;;;;;;;0.50;0.10;;;;;;;9.24;92.10;90749.00;4983363;28;20050;-85
2021/08/30 00:33:46;;;;;;;0.22;0.10;;;;;;;9.19;92.42;90749.22;5000364;28;20026;-85
2021/08/30 00:36:22;;;;;;;0.25;0.10;;;;;;;9.31;91.89;90741.41;4984212;28;20033;-86
2021/08/30 00:38:58;;;;;;;0.45;0.20;;;;;;;9.23;91.91;90745.63;5000195;28;20021;-85
2021/08/30 00:41:38;;;;;;;0.08;0.08;;;;;;;9.26;92.17;90752.03;4983085;28;20025;-86
2021/08/30 00:44:13;;;;;;;1.27;0.20;;;;;;;9.29;91.87;90746.16;4984169;28;20108;-85
2021/08/30 00:46:49;;;;;;;0.40;0.20;;;;;;;9.23;92.01;90747.47;4983527;28;20029;-85
2021/08/30 00:49:27;;;;;;;0.20;0.13;;;;;;;9.39;91.43;90748.34;5000377;28;20029;-87
2021/08/30 00:52:04;;;;;;;0.20;0.10;;;;;;;9.29;91.67;90740.97;5019077;28;20107;-85
2021/08/30 00:54:39;;;;;;;0.10;0.05;;;;;;;9.25;91.81;90742.69;5003416;28;20032;-85
2021/08/30 00:57:13;;;;;;;0.25;0.10;;;;;;;9.19;92.91;90744.75;5019132;28;20481;-85
2021/08/30 00:59:50;;;;;;;0.55;0.30;;;;;;;9.22;92.58;90748.53;5002996;28;20111;-85
2021/08/30 01:02:28;;;;;;;0.30;0.10;;;;;;;9.22;92.54;90749.31;5002585;28;20024;-85
2021/08/30 01:05:09;;;;;;;0.30;0.10;;;;;;;9.25;92.33;90747.91;5019137;28;20020;-85
2021/08/30 01:08:22;;;;;;;0.40;0.10;;;;;;;9.47;90.72;90736.31;5035963;28;20017;-86
2021/08/30 01:11:13;;;;;;;0.22;0.10;;;;;;;9.27;91.85;90736.09;5005038;28;20055;-86
2021/08/30 01:13:49;;;;;;;0.40;0.10;;;;;;;9.26;92.45;90739.78;5035401;28;20099;-85
2021/08/30 01:16:24;;;;;;;0.30;0.20;;;;;;;9.22;92.89;90735.53;5053154;28;20029;-86
2021/08/30 01:18:50;;;;;;;0.10;0.00;;;;;;;9.26;92.40;90739.03;5036184;28;20032;-86
2021/08/30 01:21:28;;;;;;;0.52;0.20;;;;;;;9.18;93.03;90738.03;5018508;28;20017;-86
2021/08/30 01:24:07;;;;;;;0.20;0.20;;;;;;;9.19;93.14;90746.59;5035680;28;20020;-85
2021/08/30 01:26:54;;;;;;;0.00;0.00;;;;;;;9.43;92.33;90744.00;5019606;28;20029;-86
2021/08/30 01:29:49;;;;;;;1.25;0.10;;;;;;;9.34;92.25;90735.56;5007686;28;20033;-85
2021/08/30 01:32:40;;;;;;;0.10;0.10;;;;;;;9.34;92.31;90736.31;5032942;28;20108;-86
2021/08/30 01:35:19;;;;;;;0.63;0.10;;;;;;;9.25;92.80;90732.28;5012948;28;20031;-86
2021/08/30 01:37:59;;;;;;;0.10;0.05;;;;;;;9.23;92.93;90735.22;5000388;28;20397;-85
2021/08/30 01:40:36;;;;;;;0.35;0.10;;;;;;;9.25;93.26;90737.50;4983331;28;20025;-85
2021/08/30 01:43:12;;;;;;;0.10;0.00;;;;;;;9.37;92.31;90721.91;5015607;28;20032;-86
2021/08/30 01:45:48;;;;;;;0.10;0.00;;;;;;;9.44;91.71;90735.16;5035367;28;20025;-85
2021/08/30 01:48:26;;;;;;;0.10;0.00;;;;;;;9.51;91.65;90727.56;5003728;28;20025;-86
2021/08/30 01:50:59;;;;;;;0.00;0.00;;;;;;;9.58;90.89;90725.19;5003875;28;20036;-86
2021/08/30 01:53:37;;;;;;;0.28;0.00;;;;;;;9.49;91.21;90728.97;5020411;28;20118;-86
2021/08/30 01:56:11;;;;;;;0.25;0.05;;;;;;;9.32;92.20;90735.88;5018359;28;20486;-85
2021/08/30 02:01:39;;;;;;;0.30;0.05;;;;;;;9.49;91.87;90737.53;5051348;28;20028;-86
2021/08/30 02:04:11;;;;;;;0.30;0.10;;;;;;;9.51;91.19;90724.97;5037431;28;20032;-86
2021/08/30 02:06:40;;;;;;;0.10;0.00;;;;;;;9.32;92.60;90737.72;5035843;28;20064;-86
2021/08/30 02:09:14;;;;;;;0.00;0.00;;;;;;;9.28;92.20;90731.66;5035734;28;20025;-86
2021/08/30 02:11:49;;;;;;;0.10;0.00;;;;;;;9.51;91.60;90737.22;5019477;28;20024;-87
2021/08/30 02:14:25;;;;;;;0.10;0.00;;;;;;;9.52;91.21;90726.47;5036662;28;20432;-86
2021/08/30 02:17:04;;;;;;;0.00;0.00;;;;;;;9.26;92.07;90734.59;5036906;28;20436;-86
2021/08/30 02:19:58;;;;;;;0.00;0.00;;;;;;;9.29;92.24;90738.38;5018669;28;20028;-87
2021/08/30 02:22:37;;;;;;;0.20;0.00;;;;;;;9.23;92.70;90731.88;5034590;28;20024;-86
2021/08/30 02:25:19;;;;;;;0.00;0.00;;;;;;;9.27;92.43;90732.75;5032043;28;20028;-86
2021/08/30 02:28:00;;;;;;;0.28;0.00;;;;;;;9.33;92.20;90734.06;4998933;28;20558;-86
2021/08/30 02:30:42;;;;;;;1.35;0.10;;;;;;;9.37;92.32;90734.94;4998892;28;20053;-85
2021/08/30 02:33:26;;;;;;;0.10;0.10;;;;;;;9.46;91.17;90738.16;4998930;28;20029;-87
2021/08/30 02:36:05;;;;;;;1.20;0.10;;;;;;;9.57;90.94;90734.03;4998334;28;20025;-85
2021/08/30 02:38:46;;;;;;;1.95;0.10;;;;;;;9.42;91.60;90733.94;4998415;28;20029;-85
2021/08/30 02:41:26;;;;;;;0.50;0.00;;;;;;;9.27;92.93;90736.09;4998202;28;20028;-86
2021/08/30 02:44:07;;;;;;;0.32;0.03;;;;;;;9.26;93.06;90733.84;4982297;28;20022;-86
2021/08/30 02:46:45;;;;;;;0.25;0.08;;;;;;;9.42;92.09;90734.69;4982675;28;20033;-85
2021/08/30 02:49:24;;;;;;;0.43;0.20;;;;;;;9.36;92.60;90728.19;4981812;28;20026;-85
2021/08/30 02:52:04;;;;;;;0.20;0.13;;;;;;;9.32;93.07;90720.28;4981607;28;20107;-86
2021/08/30 02:54:38;;;;;;;0.50;0.10;;;;;;;9.28;93.71;90724.59;5000259;28;20029;-86
2021/08/30 02:57:17;;;;;;;0.45;0.20;;;;;;;9.41;92.75;90725.38;5018168;28;20025;-86
2021/08/30 02:59:55;;;;;;;0.50;0.20;;;;;;;9.27;93.22;90723.09;5001332;28;20090;-84
2021/08/30 03:02:36;;;;;;;2.08;0.13;;;;;;;9.44;93.06;90731.78;5018746;28;20017;-86
2021/08/30 03:05:21;;;;;;;2.13;0.30;;;;;;;9.47;92.70;90718.91;5017217;28;20025;-85
2021/08/30 03:07:54;;;;;;;;;;;;;;;9.36;92.77;90722.97;5035496;28;20021;-86
2021/08/30 03:10:26;;;;;;;1.80;0.30;;;;;;;9.33;93.22;90721.06;5020316;28;19916;-88
2021/08/30 03:13:05;;;;;;;0.40;0.20;;;;;;;9.27;93.28;90725.69;5018706;28;20033;-86
2021/08/30 03:15:44;;;;;;;0.50;0.30;;;;;;;9.31;93.27;90721.38;5002514;28;20055;-85
2021/08/30 03:18:21;;;;;;;0.50;0.28;;;;;;;9.34;92.93;90709.56;5018788;28;20048;-85
2021/08/30 03:21:03;;;;;;;0.57;0.30;;;;;;;9.33;93.07;90705.44;5001157;28;20052;-86
2021/08/30 03:23:39;;;;;;;0.20;0.20;;;;;;;9.33;92.91;90701.00;5018684;28;20041;-86
2021/08/30 03:26:13;;;;;;;0.30;0.25;;;;;;;9.38;92.27;90697.44;5001412;28;20067;-86
2021/08/30 03:28:50;;;;;;;0.52;0.35;;;;;;;9.45;91.73;90705.44;5036365;28;20029;-85
2021/08/30 03:31:27;;;;;;;0.35;0.22;;;;;;;9.22;92.64;90706.94;5037793;28;20056;-86
2021/08/30 03:34:03;;;;;;;0.90;0.40;;;;;;;9.17;92.95;90709.75;5021712;28;20531;-86
2021/08/30 03:36:41;;;;;;;0.82;0.50;;;;;;;9.07;93.59;90711.69;5038011;28;20062;-86
2021/08/30 03:39:22;;;;;;;0.68;0.55;;;;;;;9.04;94.08;90716.78;5005661;28;20024;-85
2021/08/30 03:41:59;;;;;;;0.47;0.40;;;;;;;9.01;93.89;90710.41;5031829;28;20029;-86
2021/08/30 03:44:39;;;;;;;0.52;0.28;;;;;;;9.19;93.10;90720.63;5021873;28;20024;-85
2021/08/30 03:47:10;;;;;;;0.60;0.30;;;;;;;9.19;92.92;90723.97;5005799;28;20137;-86
2021/08/30 03:49:45;;;;;;;2.83;0.47;;;;;;;9.26;92.76;90719.00;5000034;28;20029;-86
2021/08/30 03:52:24;;;;;;;0.77;0.40;;;;;;;9.20;93.49;90722.13;5002506;28;20021;-86
2021/08/30 03:54:56;;;;;;;0.30;0.28;;;;;;;9.16;93.89;90722.00;5002319;28;20025;-86
2021/08/30 03:57:36;;;;;;;0.65;0.40;;;;;;;9.20;93.91;90725.47;5002317;28;20033;-86
2021/08/30 04:00:16;;;;;;;0.88;0.40;;;;;;;9.20;94.01;90716.91;5002298;28;20416;-85
2021/08/30 04:02:54;;;;;;;0.80;0.47;;;;;;;9.20;94.01;90724.72;4986551;28;20025;-85
2021/08/30 04:05:31;;;;;;;1.05;0.40;;;;;;;9.22;93.92;90718.13;5002133;28;20025;-85
2021/08/30 04:08:08;;;;;;;0.90;0.40;;;;;;;9.32;93.76;90725.47;5002861;28;20405;-86
2021/08/30 04:10:47;;;;;;;1.55;0.50;;;;;;;9.31;93.55;90720.59;4985946;28;20047;-87
2021/08/30 04:13:22;;;;;;;2.13;0.47;;;;;;;9.36;93.81;90720.38;5005152;23;20045;-89
2021/08/30 04:16:02;;;;;;;0.70;0.50;;;;;;;9.44;92.98;90723.97;5020195;28;20107;-89
2021/08/30 04:18:41;;;;;;;1.00;0.50;;;;;;;9.41;93.01;90716.81;5036715;28;20028;-89
2021/08/30 04:21:24;;;;;;;1.35;0.60;;;;;;;9.47;92.41;90715.50;5035217;28;20037;-90
2021/08/30 04:24:06;;;;;;;1.35;0.50;;;;;;;9.41;92.87;90714.97;5024298;28;20063;-89
2021/08/30 04:26:46;;;;;;;0.70;0.35;;;;;;;9.58;92.07;90714.78;5031818;28;20052;-89
2021/08/30 04:29:26;;;;;;;3.90;0.57;;;;;;;9.56;92.33;90710.97;5015336;28;20503;-89
2021/08/30 04:32:06;;;;;;;0.98;0.57;;;;;;;9.62;91.41;90716.72;5000257;28;20071;-89
2021/08/30 04:34:44;;;;;;;1.02;0.60;;;;;;;9.39;92.26;90706.72;5000200;28;20053;-88
2021/08/30 04:37:24;;;;;;;0.93;0.60;;;;;;;9.43;92.60;90707.59;4999431;28;20033;-88
2021/08/30 04:40:04;;;;;;;1.00;0.60;;;;;;;9.44;92.44;90703.19;5013956;28;20037;-88
2021/08/30 04:42:39;;;;;;;0.70;0.40;;;;;;;9.58;92.32;90706.97;5000139;28;20411;-89
2021/08/30 04:45:11;;;;;;;;;;;;;;;9.57;91.76;90708.03;5000007;28;20029;-88
2021/08/30 04:47:44;;;;;;;0.55;0.40;;;;;;;9.50;92.24;90715.63;5015080;28;19913;-88
2021/08/30 04:50:23;;;;;;;0.60;0.22;;;;;;;9.48;92.69;90717.03;5015542;28;20045;-89
2021/08/30 04:53:05;;;;;;;0.82;0.40;;;;;;;9.57;92.30;90722.88;5015514;28;20104;-87
2021/08/30 04:55:39;;;;;;;0.43;0.30;;;;;;;9.49;92.05;90727.13;5031516;28;20033;-88
2021/08/30 04:58:09;;;;;;;1.08;0.60;;;;;;;9.48;92.27;90730.06;5031732;28;20026;-88
2021/08/30 05:00:40;;;;;;;1.60;0.70;;;;;;;9.56;92.23;90745.53;5015226;28;20030;-88
2021/08/30 05:03:15;;;;;;;1.70;0.90;;;;;;;9.43;92.05;90735.44;4998410;28;20029;-88
2021/08/30 05:05:50;;;;;;;1.60;1.00;;;;;;;9.45;92.46;90731.44;4999344;28;20029;-87
2021/08/30 05:08:31;;;;;;;1.98;1.25;;;;;;;9.38;92.28;90733.84;5014879;28;20112;-88
2021/08/30 05:11:05;;;;;;;2.63;1.40;;;;;;;9.34;93.36;90731.13;4999569;28;20029;-89
2021/08/30 05:13:44;;;;;;;2.30;1.50;;;;;;;9.53;92.11;90722.78;5014506;28;20128;-88
2021/08/30 05:16:13;;;;;;;4.07;1.85;;;;;;;9.38;92.81;90741.63;5015116;28;20029;-89
2021/08/30 05:18:53;;;;;;;2.13;1.15;;;;;;;9.33;92.76;90734.81;4999235;28;20112;-87
2021/08/30 05:21:20;;;;;;;3.20;1.63;;;;;;;9.32;93.22;90737.72;5013372;28;20448;-87
2021/08/30 05:23:54;;;;;;;2.88;1.85;;;;;;;9.28;93.66;90744.66;5014331;28;20038;-89
2021/08/30 05:26:33;;;;;;;3.63;1.77;;;;;;;9.16;94.35;90740.22;5014729;28;20108;-89
2021/08/30 05:29:07;;;;;;;5.40;2.10;;;;;;;9.29;93.60;90735.75;5014588;28;20512;-89
2021/08/30 05:31:44;;;;;;;5.05;2.50;;;;;;;9.26;93.91;90744.25;4997745;28;20037;-89
2021/08/30 05:34:11;;;;;;;3.30;1.90;;;;;;;9.28;94.08;90742.06;4998646;28;20029;-88
2021/08/30 05:36:50;;;;;;;4.25;2.33;;;;;;;9.31;93.63;90752.56;4998052;28;20390;-89
2021/08/30 05:39:22;;;;;;;3.60;2.05;;;;;;;9.29;94.05;90748.75;4998646;28;20443;-87
2021/08/30 05:41:59;;;;;;;3.10;1.70;;;;;;;9.41;93.50;90746.19;4998100;28;20071;-89
2021/08/30 05:44:39;;;;;;;3.45;1.90;;;;;;;9.41;93.34;90746.19;4998405;28;20021;-88
2021/08/30 05:47:17;;;;;;;2.90;1.92;;;;;;;9.50;92.64;90754.63;4998989;28;20029;-88
2021/08/30 05:50:00;;;;;;;3.17;1.60;;;;;;;9.45;92.87;90744.47;4998206;28;20492;-87
2021/08/30 05:52:37;;;;;;;2.65;1.60;;;;;;;9.60;92.48;90742.28;5014744;28;20493;-90
2021/08/30 05:55:12;;;;;;;2.88;1.50;;;;;;;9.56;91.81;90748.13;5013893;28;20031;-88
2021/08/30 05:57:51;;;;;;;3.15;1.20;;;;;;;9.55;92.39;90758.88;5013838;28;20025;-87
2021/08/30 06:00:22;;;;;;;2.00;1.10;;;;;;;9.56;91.78;90753.34;5015017;28;20104;-89
2021/08/30 06:02:57;;;;;;;2.13;1.02;;;;;;;9.51;92.85;90745.00;5014493;28;20021;-90
2021/08/30 06:05:39;;;;;;;3.05;1.35;;;;;;;9.49;93.61;90758.31;4997777;28;20060;-89
2021/08/30 06:08:13;;;;;;;2.08;1.20;;;;;;;9.53;92.98;90763.63;5015028;28;20488;-89
2021/08/30 06:10:51;;;;;;;2.28;1.10;;;;;;;9.77;91.49;90757.69;4998168;28;20108;-87
2021/08/30 06:13:36;;;;;;;2.47;1.20;;;;;;;9.84;91.17;90751.94;4998061;28;20405;-89
2021/08/30 06:16:18;;;;;;;2.95;1.20;;;;;;;9.81;91.95;90753.34;5031423;28;20029;-89
2021/08/30 06:19:00;;;;;;;2.70;1.27;;;;;;;9.92;90.14;90754.41;5013019;28;20091;-89
2021/08/30 06:21:35;;;;;;;3.22;1.40;;;;;;;9.92;90.80;90751.06;4998181;28;20018;-89
2021/08/30 06:24:11;;;;;;;2.30;1.50;;;;;;;9.86;90.10;90749.75;5031177;28;20033;-88
2021/08/30 06:26:48;;;;;;;2.30;1.48;;;;;;;9.94;90.39;90747.06;4994569;28;20410;-89
2021/08/30 06:29:29;;;;;;;2.90;1.90;;;;;;;9.81;90.59;90754.09;4994192;28;20026;-88
2021/08/30 06:32:08;;;;;;;2.72;1.63;;;;;;;9.82;91.04;90749.66;4994115;28;20046;-89
2021/08/30 06:34:48;;;;;;;4.40;2.40;;;;;;;9.84;90.39;90755.28;5011466;28;20030;-89
2021/08/30 06:37:17;;;;;;;3.95;2.20;;;;;;;9.89;90.13;90755.06;4994177;28;20482;-89
2021/08/30 06:39:56;;;;;;;3.13;2.08;;;;;;;10.08;89.70;90749.31;4993508;28;20025;-86
2021/08/30 06:42:31;;;;;;;2.70;1.90;;;;;;;9.97;90.31;90745.66;5027160;28;20018;-91
2021/08/30 06:45:08;;;;;;;4.25;2.47;;;;;;;10.06;90.80;90749.63;5037690;28;20028;-91
2021/08/30 06:47:47;;;;;;;4.30;2.42;;;;;;;10.24;89.62;90754.59;4998847;28;20490;-89
2021/08/30 06:50:25;;;;;;;4.13;2.60;;;;;;;10.18;89.29;90745.50;4993979;28;20489;-89
2021/08/30 06:53:04;;;;;;;3.75;2.50;;;;;;;10.22;89.79;90754.16;4993995;28;20117;-89
2021/08/30 06:55:42;;;;;;;3.70;2.53;;;;;;;10.13;89.82;90743.88;4994091;28;20029;-88
2021/08/30 06:58:20;;;;;;;4.45;2.60;;;;;;;10.19;89.29;90741.81;5010174;28;20100;-89
2021/08/30 07:00:56;;;;;;;4.57;3.00;;;;;;;10.29;89.37;90736.94;4993507;28;20463;-89
2021/08/30 07:03:33;;;;;;;5.00;3.05;;;;;;;10.23;88.16;90737.44;4994900;28;20022;-89
2021/08/30 07:06:14;;;;;;;3.95;2.40;;;;;;;10.22;88.83;90746.34;4997642;28;20026;-88
2021/08/30 07:08:50;;;;;;;4.55;2.95;;;;;;;10.11;90.00;90745.31;4997800;28;20029;-87
2021/08/30 07:11:31;;;;;;;4.95;3.03;;;;;;;10.15;89.97;90740.94;4997320;28;20494;-89
2021/08/30 07:14:13;;;;;;;5.28;3.13;;;;;;;10.13;89.54;90754.28;4997254;28;20064;-89
2021/08/30 07:16:53;;;;;;;5.30;3.47;;;;;;;10.21;89.65;90739.63;5013770;28;20045;-89
2021/08/30 07:19:28;;;;;;;5.93;3.40;;;;;;;10.20;89.60;90748.53;4996252;28;20037;-89
2021/08/30 07:22:10;;;;;;;4.88;3.47;;;;;;;10.32;89.15;90745.94;4997797;28;20021;-89
2021/08/30 07:24:47;;;;;;;4.82;2.90;;;;;;;10.48;88.52;90744.13;4980726;28;20482;-89
2021/08/30 07:27:27;;;;;;;4.88;2.88;;;;;;;10.48;88.88;90738.94;5012843;28;20029;-90
2021/08/30 07:30:02;;;;;;;7.22;3.05;;;;;;;10.47;89.48;90744.47;5017557;28;20397;-89
2021/08/30 07:32:41;;;;;;;5.20;2.95;;;;;;;10.36;90.79;90740.81;5016205;28;20036;-89
2021/08/30 07:35:12;;;;;;;5.07;2.92;;;;;;;10.41;89.49;90745.78;5000234;28;20029;-90
2021/08/30 07:37:39;;;;;;;5.55;2.80;;;;;;;10.51;90.01;90743.47;4999046;28;20512;-87
2021/08/30 07:40:10;;;;;;;4.25;2.70;;;;;;;10.48;89.81;90733.72;4999815;28;20029;-88
2021/08/30 07:42:36;;;;;;;4.40;2.90;;;;;;;10.49;89.16;90745.66;5016504;28;20024;-88
2021/08/30 07:45:09;;;;;;;4.63;2.42;;;;;;;10.66;88.89;90755.03;4999913;28;20025;-89
2021/08/30 07:47:42;;;;;;;4.55;2.30;;;;;;;10.70;88.27;90755.13;5015458;28;20033;-90
2021/08/30 07:50:10;;;;;;;3.72;2.22;;;;;;;10.72;88.71;90753.72;4996346;28;20025;-86
2021/08/30 07:52:45;;;;;;;4.93;2.25;;;;;;;10.74;88.76;90756.75;5000957;28;20065;-89
2021/08/30 07:55:17;;;;;;;3.95;2.10;;;;;;;10.65;89.57;90765.81;4984502;28;20463;-89
2021/08/30 07:57:53;;;;;;;5.05;2.15;;;;;;;10.84;89.35;90765.94;4983573;28;20569;-88
2021/08/30 08:00:36;;;;;;;2.50;1.58;;;;;;;10.93;88.96;90771.78;5016608;28;20027;-90
2021/08/30 08:03:11;;;;;;;1.63;1.00;;;;;;;10.86;88.13;90771.59;5017141;28;20044;-89
2021/08/30 08:05:39;;;;;;;1.52;0.77;;;;;;;10.74;88.76;90771.63;5015857;28;20021;-89
2021/08/30 08:08:18;;;;;;;2.78;1.02;;;;;;;10.82;90.14;90778.56;5016296;28;20075;-88
2021/08/30 08:11:01;;;;;;;1.23;0.85;;;;;;;11.04;89.52;90782.47;5016806;28;20022;-89
2021/08/30 08:13:37;;;;;;;1.77;0.90;;;;;;;11.18;89.16;90780.22;5015874;28;20037;-89
2021/08/30 08:16:09;;;;;;;2.35;1.10;;;;;;;11.25;89.33;90790.09;5005360;28;20029;-89
2021/08/30 08:18:52;;;;;;;1.52;0.70;;;;;;;11.19;87.69;90784.34;5018551;28;20025;-90
2021/08/30 08:21:28;;;;;;;1.30;0.60;;;;;;;11.12;88.47;90786.78;5036392;28;20085;-89
2021/08/30 08:24:06;;;;;;;2.15;0.70;;;;;;;11.18;87.16;90800.34;5020666;28;20393;-88
2021/08/30 08:26:33;;;;;;;1.20;0.70;;;;;;;11.06;88.87;90798.56;5016984;28;20034;-89
2021/08/30 08:29:02;;;;;;;2.08;0.63;;;;;;;10.93;88.87;90790.03;5034685;28;20529;-87
2021/08/30 08:31:33;;;;;;;2.08;0.80;;;;;;;11.15;87.90;90795.78;5017553;28;20034;-89
2021/08/30 08:34:01;;;;;;;1.40;0.80;;;;;;;11.16;87.77;90797.31;5036645;28;20104;-89
2021/08/30 08:36:37;;;;;;;1.20;0.80;;;;;;;11.22;87.73;90794.13;5017389;28;20076;-90
2021/08/30 08:39:03;;;;;;;1.73;0.90;;;;;;;11.30;88.69;90797.66;5024059;28;20110;-89
2021/08/30 08:41:32;;;;;;;1.50;0.63;;;;;;;11.48;87.03;90788.44;5035138;28;20116;-89
2021/08/30 08:44:06;;;;;;;1.20;0.70;;;;;;;11.67;85.81;90795.59;5016629;28;20084;-89
2021/08/30 08:46:41;;;;;;;1.90;0.68;;;;;;;11.63;86.76;90799.22;5016830;28;20108;-89
2021/08/30 08:49:18;;;;;;;0.35;0.30;;;;;;;11.51;87.43;90807.88;5000675;28;20029;-89
2021/08/30 08:52:03;;;;;;;1.00;0.50;;;;;;;11.61;86.84;90801.41;4997973;28;20032;-89
2021/08/30 08:54:38;;;;;;;0.68;0.43;;;;;;;11.74;85.35;90805.47;5014268;28;20025;-89
2021/08/30 08:57:12;;;;;;;;;;;;;;;11.86;86.60;90802.78;4991248;28;20051;-89
2021/08/30 09:00:01;;;;;;;0.57;0.30;;;;;;;11.77;85.32;90799.56;5034552;28;19913;-90
2021/08/30 09:02:38;;;;;;;0.90;0.55;;;;;;;12.16;84.54;90804.97;5017222;28;20025;-89
2021/08/30 09:05:34;;;;;;;0.68;0.30;;;;;;;12.34;85.73;90806.09;5001083;28;20104;-90
2021/08/30 09:08:08;;;;;;;1.48;0.30;;;;;;;12.23;83.67;90809.59;5001743;28;20437;-89
2021/08/30 09:10:43;;;;;;;0.73;0.30;;;;;;;12.40;84.04;90814.41;5016250;28;20028;-89
2021/08/30 09:13:16;;;;;;;0.38;0.20;;;;;;;12.31;84.51;90804.16;4985184;28;20060;-87
2021/08/30 09:15:46;;;;;;;0.30;0.20;;;;;;;12.40;83.95;90809.97;5015591;28;20639;-88
2021/08/30 09:18:21;;;;;;;0.40;0.20;;;;;;;12.43;82.66;90809.28;4999011;28;20036;-89
2021/08/30 09:21:03;;;;;;;0.10;0.10;;;;;;;12.35;83.68;90820.69;4999126;28;20029;-88
2021/08/30 09:23:41;;;;;;;0.20;0.10;;;;;;;12.16;84.96;90820.63;4983681;28;20076;-89
2021/08/30 09:26:22;;;;;;;0.25;0.15;;;;;;;12.10;84.58;90816.75;4982633;28;20033;-89
2021/08/30 09:28:59;;;;;;;0.20;0.10;;;;;;;12.08;84.43;90813.72;5000647;28;20378;-89
2021/08/30 09:31:32;;;;;;;0.70;0.30;;;;;;;12.26;82.88;90819.34;4999305;28;20489;-89
2021/08/30 09:34:06;;;;;;;8.63;2.53;;;;;;;12.39;83.91;90821.50;5004667;28;20033;-89
2021/08/30 09:36:53;;;;;;;4.47;1.40;;;;;;;12.02;84.73;90825.53;4999517;28;20025;-89
2021/08/30 09:39:35;;;;;;;2.08;0.60;;;;;;;12.14;83.81;90825.44;5018302;28;20108;-89
2021/08/30 09:42:06;;;;;;;2.78;1.25;;;;;;;12.58;83.56;90820.03;5016346;28;20029;-89
2021/08/30 09:44:44;;;;;;;0.40;0.20;;;;;;;12.41;82.37;90815.97;4998004;28;20025;-89
2021/08/30 09:47:19;;;;;;;0.10;0.10;;;;;;;12.14;83.61;90822.81;5035911;28;20040;-87
2021/08/30 09:49:55;;;;;;;0.30;0.20;;;;;;;12.08;83.91;90813.72;4996470;28;20093;-87
2021/08/30 09:52:34;;;;;;;0.30;0.22;;;;;;;12.57;81.30;90818.50;5026783;28;20029;-88
2021/08/30 09:55:08;;;;;;;0.70;0.30;;;;;;;12.47;83.26;90813.81;5022977;28;20026;-89
2021/08/30 09:57:40;;;;;;;1.50;1.05;;;;;;;12.14;79.64;90817.59;4989156;28;20022;-89
2021/08/30 10:00:19;;;;;;;1.63;0.93;;;;;;;12.09;82.20;90823.84;4992643;28;20038;-92
2021/08/30 10:02:59;;;;;;;1.67;1.10;;;;;;;12.25;81.81;90818.59;5126391;22;20017;-92
2021/08/30 10:05:33;;;;;;;3.33;1.15;;;;;;;12.54;79.67;90824.41;5055074;28;20037;-88
2021/08/30 10:08:07;;;;;;;2.92;1.25;;;;;;;12.68;80.43;90830.72;5030165;28;20027;-88
2021/08/30 10:10:40;;;;;;;2.45;1.38;;;;;;;13.01;81.54;90829.50;5063606;28;20035;-89
2021/08/30 10:13:14;;;;;;;2.40;1.45;;;;;;;13.01;79.35;90832.13;5059428;22;20021;-85
2021/08/30 10:15:54;;;;;;;2.60;1.42;;;;;;;13.06;79.10;90838.94;5040805;28;20035;-85
2021/08/30 10:18:32;;;;;;;2.05;1.50;;;;;;;13.05;80.40;90832.94;5024693;28;20033;-86
2021/08/30 10:21:19;;;;;;;2.40;1.48;;;;;;;12.88;78.16;90826.25;5024087;28;20028;-86
2021/08/30 10:23:54;;;;;;;2.97;1.50;;;;;;;13.21;79.31;90837.34;5019786;28;20033;-86
2021/08/30 10:26:48;;;;;;;3.67;1.90;;;;;;;13.25;80.64;90841.59;5036485;28;20035;-86
2021/08/30 10:29:39;;;;;;;5.25;2.03;;;;;;;12.95;79.22;90843.19;5021580;28;20025;-87
2021/08/30 10:32:29;;;;;;;3.42;2.22;;;;;;;12.89;80.54;90840.09;5004572;28;20029;-86
2021/08/30 10:34:59;;;;;;;3.42;2.28;;;;;;;12.98;78.33;90830.19;5021885;28;20029;-86
2021/08/30 10:37:47;;;;;;;6.97;2.25;;;;;;;13.06;78.36;90838.94;5005009;28;20540;-86
2021/08/30 10:40:24;;;;;;;3.63;2.50;;;;;;;12.84;79.18;90835.13;5041085;28;20025;-86
2021/08/30 10:43:20;;;;;;;4.82;2.55;;;;;;;12.81;78.88;90841.81;5040799;28;20080;-86
2021/08/30 10:45:59;;;;;;;4.53;2.95;;;;;;;13.02;79.22;90832.88;5024984;28;20025;-85
2021/08/30 10:48:54;;;;;;;3.75;2.42;;;;;;;13.54;79.47;90842.09;5007456;28;20564;-87
2021/08/30 10:51:33;;;;;;;4.72;2.70;;;;;;;13.80;78.13;90839.56;5024225;28;20052;-87
2021/08/30 10:54:21;;;;;;;5.05;2.70;;;;;;;13.56;78.14;90845.13;5007392;28;20025;-87
2021/08/30 10:57:03;;;;;;;4.78;2.85;;;;;;;13.96;77.26;90831.59;5017095;28;20057;-87
2021/08/30 10:59:39;;;;;;;4.32;2.78;;;;;;;13.86;74.66;90838.16;5018111;28;20033;-87
2021/08/30 11:02:14;;;;;;;7.85;3.83;;;;;;;13.65;76.26;90835.19;5002819;28;20072;-87
2021/08/30 11:04:50;;;;;;;4.53;3.03;;;;;;;13.62;77.01;90838.50;5002255;28;20025;-87
2021/08/30 11:07:25;;;;;;;4.57;3.20;;;;;;;13.67;78.50;90837.44;5001757;28;20083;-87
2021/08/30 11:10:01;;;;;;;4.47;2.60;;;;;;;13.41;77.10;90836.25;5002124;28;20029;-87
2021/08/30 11:12:37;;;;;;;5.82;3.17;;;;;;;13.56;79.71;90834.66;5019316;28;20032;-88
2021/08/30 11:15:10;;;;;;;4.80;2.97;;;;;;;13.47;77.60;90839.38;5019294;28;20060;-86
2021/08/30 11:17:47;;;;;;;4.60;2.70;;;;;;;13.63;77.38;90850.47;5002094;28;20029;-87
2021/08/30 11:20:27;;;;;;;4.35;2.20;;;;;;;13.12;79.21;90838.31;5018308;28;20049;-86
2021/08/30 11:23:02;;;;;;;3.35;2.00;;;;;;;13.39;77.93;90841.06;5002459;28;20017;-86
2021/08/30 11:25:35;;;;;;;3.30;1.85;;;;;;;13.30;78.67;90843.91;5002089;28;20033;-86
2021/08/30 11:28:18;;;;;;;3.50;2.22;;;;;;;13.06;78.84;90844.91;5034294;28;20036;-86
2021/08/30 11:30:54;;;;;;;3.53;2.03;;;;;;;12.84;80.36;90838.50;5001489;28;20120;-86
2021/08/30 11:33:30;;;;;;;4.45;2.60;;;;;;;13.29;79.51;90841.66;5018715;28;20022;-86
2021/08/30 11:36:07;;;;;;;3.72;2.28;;;;;;;13.40;78.35;90842.59;5001716;28;20553;-86
2021/08/30 11:38:45;;;;;;;4.93;2.00;;;;;;;13.35;78.20;90846.25;5018236;28;20053;-86
2021/08/30 11:41:19;;;;;;;4.30;2.17;;;;;;;13.37;78.66;90844.03;5016282;28;20021;-86
2021/08/30 11:43:51;;;;;;;;;;;;;;;13.34;77.94;90849.97;5018162;28;20111;-86
2021/08/30 11:46:27;;;;;;;2.75;1.90;;;;;;;12.98;79.62;90840.66;5034292;28;19909;-86
2021/08/30 11:49:00;;;;;;;3.25;1.88;;;;;;;13.25;78.53;90849.44;5016927;28;20029;-86
2021/08/30 11:51:50;;;;;;;2.92;1.90;;;;;;;13.39;79.25;90856.78;5000505;28;20481;-86
2021/08/30 11:54:32;;;;;;;2.67;1.70;;;;;;;13.52;77.11;90850.28;5017388;28;20033;-88
2021/08/30 11:57:11;;;;;;;3.30;2.00;;;;;;;13.77;77.29;90845.50;5041788;28;20024;-87
2021/08/30 11:59:49;;;;;;;4.18;2.50;;;;;;;13.70;77.06;90853.22;5020326;28;20124;-87
2021/08/30 12:02:28;;;;;;;5.68;2.75;;;;;;;13.64;76.66;90852.00;5005785;28;20020;-86
2021/08/30 12:05:10;;;;;;;4.53;2.97;;;;;;;14.04;76.11;90846.31;5005206;28;20481;-86
2021/08/30 12:07:41;;;;;;;5.38;3.30;;;;;;;14.30;75.46;90850.81;5021012;28;20504;-86
2021/08/30 12:10:13;;;;;;;4.63;2.97;;;;;;;14.40;72.58;90853.97;5020641;28;20025;-86
2021/08/30 12:13:20;;;;;;;4.43;2.85;;;;;;;14.08;73.26;90855.00;5020697;28;20078;-84
2021/08/30 12:15:46;;;;;;;5.18;3.33;;;;;;;14.08;76.10;90864.72;5031020;28;20025;-86
2021/08/30 12:18:24;;;;;;;4.72;3.08;;;;;;;13.41;76.37;90857.19;5021389;28;20029;-86
2021/08/30 12:21:05;;;;;;;5.50;2.90;;;;;;;13.42;77.15;90861.31;5004460;28;20021;-86
2021/08/30 12:23:42;;;;;;;8.80;4.60;;;;;;;13.05;78.83;90863.59;5037356;28;20059;-86
2021/08/30 12:26:15;;;;;;;4.68;2.80;;;;;;;13.05;79.74;90861.72;5021354;28;20025;-87
2021/08/30 12:28:50;;;;;;;4.25;2.88;;;;;;;12.99;80.33;90864.94;5004325;28;20029;-86
2021/08/30 12:31:35;;;;;;;5.35;3.10;;;;;;;13.02;80.36;90866.88;5020017;28;20087;-86